Terminal Aerodrome Forecast
Issued by NWS Paducah, KY

Home | Current Version | Previous Version | Text Only | Print | Product List | Glossary On
Versions: 1 2 3 4 5 6 7 8 9 10 11 12 13
000
FTUS43 KPAH 020520
TAFEVV
TAF
KEVV 020520Z 0206/0306 14006KT P6SM OVC150
     FM020900 19013G20KT P6SM -SHRA SCT035 BKN070
      TEMPO 0209/0212 3SM TSRA BKN035CB
     FM021300 21016G23KT P6SM SCT035 BKN060
     FM021600 21018G27KT P6SM SCT025 BKN040 PROB30 0220/0224 TS
      BKN040CB
     FM030000 21010KT P6SM SCT040 BKN060 PROB30 0304/0306 5SM -TSRA
      BKN030CB=

USA.gov is the U.S. government's official web portal to all federal, state and local government web resources and services.